sensor_id;sensor_type;location;lat;lon;timestamp;P1;durP1;ratioP1;P2;durP2;ratioP2
23282;SDS011;11810;51.178;3.878;2023-01-09T00:01:23;3.10;;;2.10;;
23282;SDS011;11810;51.178;3.878;2023-01-09T00:03:52;3.50;;;2.10;;
23282;SDS011;11810;51.178;3.878;2023-01-09T00:06:18;5.28;;;2.40;;
23282;SDS011;11810;51.178;3.878;2023-01-09T00:08:43;4.70;;;2.53;;
23282;SDS011;11810;51.178;3.878;2023-01-09T00:11:09;10.70;;;2.92;;
23282;SDS011;11810;51.178;3.878;2023-01-09T00:13:35;6.70;;;2.58;;
23282;SDS011;11810;51.178;3.878;2023-01-09T00:16:03;5.43;;;2.75;;
23282;SDS011;11810;51.178;3.878;2023-01-09T00:18:30;7.25;;;3.15;;
23282;SDS011;11810;51.178;3.878;2023-01-09T00:20:58;7.75;;;2.42;;
23282;SDS011;11810;51.178;3.878;2023-01-09T00:23:25;5.60;;;3.00;;
23282;SDS011;11810;51.178;3.878;2023-01-09T00:26:00;5.95;;;3.70;;
23282;SDS011;11810;51.178;3.878;2023-01-09T00:28:51;7.40;;;2.97;;
23282;SDS011;11810;51.178;3.878;2023-01-09T00:31:18;6.32;;;2.95;;
23282;SDS011;11810;51.178;3.878;2023-01-09T00:33:47;7.28;;;3.13;;
23282;SDS011;11810;51.178;3.878;2023-01-09T00:36:14;9.00;;;3.25;;
23282;SDS011;11810;51.178;3.878;2023-01-09T00:38:40;11.77;;;3.08;;
23282;SDS011;11810;51.178;3.878;2023-01-09T00:41:07;9.73;;;3.10;;
23282;SDS011;11810;51.178;3.878;2023-01-09T00:43:38;11.63;;;3.55;;
23282;SDS011;11810;51.178;3.878;2023-01-09T00:46:08;9.20;;;3.00;;
23282;SDS011;11810;51.178;3.878;2023-01-09T00:48:36;8.13;;;2.88;;
23282;SDS011;11810;51.178;3.878;2023-01-09T00:51:04;8.07;;;3.25;;
23282;SDS011;11810;51.178;3.878;2023-01-09T00:53:32;9.15;;;2.95;;
23282;SDS011;11810;51.178;3.878;2023-01-09T00:56:02;9.02;;;2.80;;
23282;SDS011;11810;51.178;3.878;2023-01-09T00:58:32;10.50;;;2.90;;
23282;SDS011;11810;51.178;3.878;2023-01-09T01:00:59;7.18;;;3.00;;
23282;SDS011;11810;51.178;3.878;2023-01-09T01:03:26;10.23;;;2.80;;
23282;SDS011;11810;51.178;3.878;2023-01-09T01:05:52;9.65;;;3.08;;
23282;SDS011;11810;51.178;3.878;2023-01-09T01:08:37;5.95;;;2.58;;
23282;SDS011;11810;51.178;3.878;2023-01-09T01:11:06;8.30;;;2.78;;
23282;SDS011;11810;51.178;3.878;2023-01-09T01:13:34;11.75;;;2.50;;
23282;SDS011;11810;51.178;3.878;2023-01-09T01:16:05;13.75;;;3.42;;
23282;SDS011;11810;51.178;3.878;2023-01-09T01:18:32;9.45;;;2.95;;
23282;SDS011;11810;51.178;3.878;2023-01-09T01:20:58;4.72;;;2.72;;
23282;SDS011;11810;51.178;3.878;2023-01-09T01:23:24;10.95;;;2.88;;
23282;SDS011;11810;51.178;3.878;2023-01-09T01:25:50;5.55;;;2.75;;
23282;SDS011;11810;51.178;3.878;2023-01-09T01:28:16;8.75;;;2.88;;
23282;SDS011;11810;51.178;3.878;2023-01-09T01:30:43;22.30;;;3.25;;
23282;SDS011;11810;51.178;3.878;2023-01-09T01:33:09;7.03;;;2.85;;
23282;SDS011;11810;51.178;3.878;2023-01-09T01:35:35;9.63;;;3.38;;
23282;SDS011;11810;51.178;3.878;2023-01-09T01:38:02;10.07;;;3.13;;
23282;SDS011;11810;51.178;3.878;2023-01-09T01:40:28;11.15;;;2.85;;
23282;SDS011;11810;51.178;3.878;2023-01-09T01:42:54;7.72;;;2.53;;
23282;SDS011;11810;51.178;3.878;2023-01-09T01:45:22;6.25;;;2.85;;
23282;SDS011;11810;51.178;3.878;2023-01-09T01:50:33;7.28;;;2.83;;
23282;SDS011;11810;51.178;3.878;2023-01-09T01:58:18;6.47;;;2.70;;
23282;SDS011;11810;51.178;3.878;2023-01-09T02:00:45;7.50;;;2.50;;
23282;SDS011;11810;51.178;3.878;2023-01-09T02:03:13;11.68;;;2.70;;
23282;SDS011;11810;51.178;3.878;2023-01-09T02:05:41;7.40;;;2.40;;
23282;SDS011;11810;51.178;3.878;2023-01-09T02:08:08;8.82;;;2.40;;
23282;SDS011;11810;51.178;3.878;2023-01-09T02:11:12;10.80;;;2.03;;
23282;SDS011;11810;51.178;3.878;2023-01-09T02:13:40;9.00;;;2.25;;
23282;SDS011;11810;51.178;3.878;2023-01-09T02:18:45;9.25;;;2.33;;
23282;SDS011;11810;51.178;3.878;2023-01-09T02:34:34;9.57;;;2.10;;
23282;SDS011;11810;51.178;3.878;2023-01-09T02:38:13;9.63;;;1.73;;
23282;SDS011;11810;51.178;3.878;2023-01-09T02:41:01;6.80;;;1.88;;
23282;SDS011;11810;51.178;3.878;2023-01-09T02:46:18;5.68;;;2.28;;
23282;SDS011;11810;51.178;3.878;2023-01-09T02:48:47;6.90;;;1.83;;
23282;SDS011;11810;51.178;3.878;2023-01-09T02:51:28;7.70;;;1.98;;
23282;SDS011;11810;51.178;3.878;2023-01-09T02:54:19;10.45;;;2.00;;
23282;SDS011;11810;51.178;3.878;2023-01-09T02:57:09;10.82;;;2.13;;
23282;SDS011;11810;51.178;3.878;2023-01-09T03:10:24;7.93;;;2.03;;
23282;SDS011;11810;51.178;3.878;2023-01-09T03:12:58;8.23;;;2.08;;
23282;SDS011;11810;51.178;3.878;2023-01-09T03:15:27;8.88;;;2.75;;
23282;SDS011;11810;51.178;3.878;2023-01-09T03:17:56;8.05;;;2.40;;
23282;SDS011;11810;51.178;3.878;2023-01-09T03:20:23;10.38;;;2.50;;
23282;SDS011;11810;51.178;3.878;2023-01-09T03:23:02;9.85;;;2.13;;
23282;SDS011;11810;51.178;3.878;2023-01-09T03:25:30;8.63;;;2.30;;
23282;SDS011;11810;51.178;3.878;2023-01-09T03:28:01;6.63;;;1.92;;
23282;SDS011;11810;51.178;3.878;2023-01-09T03:32:57;13.20;;;2.28;;
23282;SDS011;11810;51.178;3.878;2023-01-09T03:35:24;11.13;;;1.90;;
23282;SDS011;11810;51.178;3.878;2023-01-09T03:37:50;15.65;;;2.58;;
23282;SDS011;11810;51.178;3.878;2023-01-09T03:40:16;7.82;;;1.90;;
23282;SDS011;11810;51.178;3.878;2023-01-09T03:42:45;15.75;;;2.20;;
23282;SDS011;11810;51.178;3.878;2023-01-09T03:45:12;10.75;;;1.95;;
23282;SDS011;11810;51.178;3.878;2023-01-09T03:47:38;8.73;;;1.90;;
23282;SDS011;11810;51.178;3.878;2023-01-09T03:50:04;9.40;;;2.45;;
23282;SDS011;11810;51.178;3.878;2023-01-09T03:52:31;9.82;;;2.08;;
23282;SDS011;11810;51.178;3.878;2023-01-09T03:54:56;10.77;;;2.30;;
23282;SDS011;11810;51.178;3.878;2023-01-09T03:57:22;14.32;;;2.40;;
23282;SDS011;11810;51.178;3.878;2023-01-09T03:59:48;12.40;;;2.15;;
23282;SDS011;11810;51.178;3.878;2023-01-09T04:02:14;9.52;;;2.33;;
23282;SDS011;11810;51.178;3.878;2023-01-09T04:04:40;11.23;;;2.35;;
23282;SDS011;11810;51.178;3.878;2023-01-09T04:07:06;6.60;;;2.28;;
23282;SDS011;11810;51.178;3.878;2023-01-09T04:09:32;12.50;;;2.25;;
23282;SDS011;11810;51.178;3.878;2023-01-09T04:11:57;6.35;;;1.85;;
23282;SDS011;11810;51.178;3.878;2023-01-09T04:14:23;15.55;;;3.13;;
23282;SDS011;11810;51.178;3.878;2023-01-09T04:16:49;9.43;;;2.17;;
23282;SDS011;11810;51.178;3.878;2023-01-09T04:19:15;8.00;;;1.88;;
23282;SDS011;11810;51.178;3.878;2023-01-09T04:21:41;8.95;;;2.10;;
23282;SDS011;11810;51.178;3.878;2023-01-09T04:24:07;10.82;;;2.22;;
23282;SDS011;11810;51.178;3.878;2023-01-09T04:26:33;8.45;;;2.92;;
23282;SDS011;11810;51.178;3.878;2023-01-09T04:28:59;11.38;;;2.50;;
23282;SDS011;11810;51.178;3.878;2023-01-09T04:31:25;12.02;;;2.47;;
23282;SDS011;11810;51.178;3.878;2023-01-09T04:33:51;11.32;;;2.40;;
23282;SDS011;11810;51.178;3.878;2023-01-09T04:36:16;12.20;;;2.33;;
23282;SDS011;11810;51.178;3.878;2023-01-09T04:38:42;9.15;;;2.13;;
23282;SDS011;11810;51.178;3.878;2023-01-09T04:41:08;16.50;;;2.75;;
23282;SDS011;11810;51.178;3.878;2023-01-09T04:43:34;12.18;;;2.22;;
23282;SDS011;11810;51.178;3.878;2023-01-09T04:46:01;10.65;;;2.50;;
23282;SDS011;11810;51.178;3.878;2023-01-09T04:48:27;11.65;;;2.92;;
23282;SDS011;11810;51.178;3.878;2023-01-09T04:50:52;19.27;;;3.08;;
23282;SDS011;11810;51.178;3.878;2023-01-09T04:53:31;11.05;;;2.25;;
23282;SDS011;11810;51.178;3.878;2023-01-09T04:55:57;11.98;;;2.47;;
23282;SDS011;11810;51.178;3.878;2023-01-09T04:58:23;17.63;;;2.40;;
23282;SDS011;11810;51.178;3.878;2023-01-09T05:00:48;12.73;;;3.30;;
23282;SDS011;11810;51.178;3.878;2023-01-09T05:03:15;13.40;;;2.42;;
23282;SDS011;11810;51.178;3.878;2023-01-09T05:05:41;13.40;;;2.72;;
23282;SDS011;11810;51.178;3.878;2023-01-09T05:08:08;18.80;;;3.38;;
23282;SDS011;11810;51.178;3.878;2023-01-09T05:10:34;11.07;;;2.55;;
23282;SDS011;11810;51.178;3.878;2023-01-09T05:13:00;8.07;;;2.17;;
23282;SDS011;11810;51.178;3.878;2023-01-09T05:15:25;10.25;;;2.90;;
23282;SDS011;11810;51.178;3.878;2023-01-09T05:20:35;9.25;;;2.10;;
23282;SDS011;11810;51.178;3.878;2023-01-09T05:23:01;12.93;;;2.47;;
23282;SDS011;11810;51.178;3.878;2023-01-09T05:25:27;9.93;;;2.20;;
23282;SDS011;11810;51.178;3.878;2023-01-09T05:27:53;18.50;;;2.60;;
23282;SDS011;11810;51.178;3.878;2023-01-09T05:30:19;12.43;;;2.88;;
23282;SDS011;11810;51.178;3.878;2023-01-09T05:32:45;16.20;;;2.75;;
23282;SDS011;11810;51.178;3.878;2023-01-09T05:35:11;19.77;;;3.25;;
23282;SDS011;11810;51.178;3.878;2023-01-09T05:37:37;21.38;;;3.17;;
23282;SDS011;11810;51.178;3.878;2023-01-09T05:40:03;9.95;;;2.13;;
23282;SDS011;11810;51.178;3.878;2023-01-09T05:42:29;17.63;;;2.90;;
23282;SDS011;11810;51.178;3.878;2023-01-09T05:44:55;13.05;;;2.90;;
23282;SDS011;11810;51.178;3.878;2023-01-09T05:47:21;17.42;;;2.88;;
23282;SDS011;11810;51.178;3.878;2023-01-09T05:49:47;19.88;;;3.70;;
23282;SDS011;11810;51.178;3.878;2023-01-09T05:52:12;12.32;;;2.58;;
23282;SDS011;11810;51.178;3.878;2023-01-09T05:54:38;13.57;;;2.70;;
23282;SDS011;11810;51.178;3.878;2023-01-09T05:57:04;12.40;;;3.55;;
23282;SDS011;11810;51.178;3.878;2023-01-09T05:59:30;11.15;;;3.20;;
23282;SDS011;11810;51.178;3.878;2023-01-09T06:01:56;17.67;;;3.42;;
23282;SDS011;11810;51.178;3.878;2023-01-09T06:04:22;11.32;;;3.13;;
23282;SDS011;11810;51.178;3.878;2023-01-09T06:06:48;16.15;;;3.42;;
23282;SDS011;11810;51.178;3.878;2023-01-09T06:09:14;16.48;;;4.50;;
23282;SDS011;11810;51.178;3.878;2023-01-09T06:11:41;11.48;;;3.40;;
23282;SDS011;11810;51.178;3.878;2023-01-09T06:14:08;17.23;;;3.63;;
23282;SDS011;11810;51.178;3.878;2023-01-09T06:16:34;15.45;;;3.45;;
23282;SDS011;11810;51.178;3.878;2023-01-09T06:19:00;15.73;;;3.25;;
23282;SDS011;11810;51.178;3.878;2023-01-09T06:21:26;18.35;;;4.03;;
23282;SDS011;11810;51.178;3.878;2023-01-09T06:23:53;12.65;;;3.58;;
23282;SDS011;11810;51.178;3.878;2023-01-09T06:26:20;10.98;;;3.65;;
23282;SDS011;11810;51.178;3.878;2023-01-09T06:28:46;9.30;;;3.30;;
23282;SDS011;11810;51.178;3.878;2023-01-09T06:31:12;14.80;;;4.03;;
23282;SDS011;11810;51.178;3.878;2023-01-09T06:33:38;20.63;;;4.30;;
23282;SDS011;11810;51.178;3.878;2023-01-09T06:36:04;15.93;;;3.90;;
23282;SDS011;11810;51.178;3.878;2023-01-09T06:38:31;19.08;;;4.10;;
23282;SDS011;11810;51.178;3.878;2023-01-09T06:40:57;11.98;;;3.63;;
23282;SDS011;11810;51.178;3.878;2023-01-09T06:43:23;20.67;;;3.95;;
23282;SDS011;11810;51.178;3.878;2023-01-09T06:45:48;12.35;;;3.70;;
23282;SDS011;11810;51.178;3.878;2023-01-09T06:48:14;12.60;;;4.40;;
23282;SDS011;11810;51.178;3.878;2023-01-09T06:50:40;11.25;;;3.38;;
23282;SDS011;11810;51.178;3.878;2023-01-09T06:53:06;21.40;;;4.20;;
23282;SDS011;11810;51.178;3.878;2023-01-09T06:55:34;16.40;;;4.40;;
23282;SDS011;11810;51.178;3.878;2023-01-09T06:58:00;20.40;;;4.72;;
23282;SDS011;11810;51.178;3.878;2023-01-09T07:00:26;14.95;;;3.88;;
23282;SDS011;11810;51.178;3.878;2023-01-09T07:03:46;13.57;;;3.83;;
23282;SDS011;11810;51.178;3.878;2023-01-09T07:06:13;17.25;;;4.35;;
23282;SDS011;11810;51.178;3.878;2023-01-09T07:08:39;18.90;;;5.03;;
23282;SDS011;11810;51.178;3.878;2023-01-09T07:11:05;14.45;;;4.13;;
23282;SDS011;11810;51.178;3.878;2023-01-09T07:13:31;14.70;;;4.45;;
23282;SDS011;11810;51.178;3.878;2023-01-09T07:15:57;11.50;;;4.20;;
23282;SDS011;11810;51.178;3.878;2023-01-09T07:18:22;14.48;;;4.32;;
23282;SDS011;11810;51.178;3.878;2023-01-09T07:20:48;12.52;;;4.13;;
23282;SDS011;11810;51.178;3.878;2023-01-09T07:23:15;18.60;;;5.80;;
23282;SDS011;11810;51.178;3.878;2023-01-09T07:25:42;19.13;;;5.38;;
23282;SDS011;11810;51.178;3.878;2023-01-09T07:28:09;16.58;;;4.60;;
23282;SDS011;11810;51.178;3.878;2023-01-09T07:30:35;25.92;;;5.55;;
23282;SDS011;11810;51.178;3.878;2023-01-09T07:33:01;16.13;;;4.85;;
23282;SDS011;11810;51.178;3.878;2023-01-09T07:35:27;22.10;;;5.40;;
23282;SDS011;11810;51.178;3.878;2023-01-09T07:38:49;21.77;;;6.00;;
23282;SDS011;11810;51.178;3.878;2023-01-09T07:41:15;27.15;;;6.22;;
23282;SDS011;11810;51.178;3.878;2023-01-09T07:43:41;20.55;;;4.47;;
23282;SDS011;11810;51.178;3.878;2023-01-09T07:46:07;18.90;;;4.75;;
23282;SDS011;11810;51.178;3.878;2023-01-09T07:50:36;13.60;;;4.93;;
23282;SDS011;11810;51.178;3.878;2023-01-09T07:53:02;22.85;;;5.43;;
23282;SDS011;11810;51.178;3.878;2023-01-09T07:55:29;24.83;;;5.60;;
23282;SDS011;11810;51.178;3.878;2023-01-09T07:57:55;18.52;;;5.03;;
23282;SDS011;11810;51.178;3.878;2023-01-09T08:00:21;13.68;;;5.53;;
23282;SDS011;11810;51.178;3.878;2023-01-09T08:02:50;18.77;;;5.15;;
23282;SDS011;11810;51.178;3.878;2023-01-09T08:05:17;14.73;;;3.97;;
23282;SDS011;11810;51.178;3.878;2023-01-09T08:07:43;14.93;;;5.00;;
23282;SDS011;11810;51.178;3.878;2023-01-09T08:10:10;20.80;;;5.28;;
23282;SDS011;11810;51.178;3.878;2023-01-09T08:12:36;29.60;;;5.53;;
23282;SDS011;11810;51.178;3.878;2023-01-09T08:15:02;17.23;;;4.68;;
23282;SDS011;11810;51.178;3.878;2023-01-09T08:17:28;21.13;;;5.80;;
23282;SDS011;11810;51.178;3.878;2023-01-09T08:21:54;21.98;;;4.72;;
23282;SDS011;11810;51.178;3.878;2023-01-09T08:24:20;20.33;;;4.80;;
23282;SDS011;11810;51.178;3.878;2023-01-09T08:27:54;17.17;;;4.70;;
23282;SDS011;11810;51.178;3.878;2023-01-09T08:30:20;20.65;;;4.38;;
23282;SDS011;11810;51.178;3.878;2023-01-09T08:32:49;13.43;;;3.55;;
23282;SDS011;11810;51.178;3.878;2023-01-09T08:35:16;13.45;;;3.40;;
23282;SDS011;11810;51.178;3.878;2023-01-09T08:37:43;15.32;;;3.53;;
23282;SDS011;11810;51.178;3.878;2023-01-09T08:40:11;17.35;;;4.45;;
23282;SDS011;11810;51.178;3.878;2023-01-09T08:42:38;15.32;;;3.90;;
23282;SDS011;11810;51.178;3.878;2023-01-09T08:45:22;12.88;;;3.47;;
23282;SDS011;11810;51.178;3.878;2023-01-09T08:48:07;13.65;;;4.53;;
23282;SDS011;11810;51.178;3.878;2023-01-09T08:50:33;17.67;;;5.05;;
23282;SDS011;11810;51.178;3.878;2023-01-09T08:52:59;19.15;;;5.68;;
23282;SDS011;11810;51.178;3.878;2023-01-09T08:55:25;21.17;;;6.05;;
23282;SDS011;11810;51.178;3.878;2023-01-09T08:58:57;15.63;;;4.72;;
23282;SDS011;11810;51.178;3.878;2023-01-09T09:01:23;10.80;;;4.00;;
23282;SDS011;11810;51.178;3.878;2023-01-09T09:03:49;17.67;;;4.95;;
23282;SDS011;11810;51.178;3.878;2023-01-09T09:06:15;11.40;;;4.78;;
23282;SDS011;11810;51.178;3.878;2023-01-09T09:08:41;12.55;;;4.70;;
23282;SDS011;11810;51.178;3.878;2023-01-09T09:11:08;19.15;;;4.60;;
23282;SDS011;11810;51.178;3.878;2023-01-09T09:13:34;18.95;;;5.20;;
23282;SDS011;11810;51.178;3.878;2023-01-09T09:15:59;21.70;;;5.65;;
23282;SDS011;11810;51.178;3.878;2023-01-09T09:18:25;18.23;;;5.45;;
23282;SDS011;11810;51.178;3.878;2023-01-09T09:20:51;16.20;;;4.15;;
23282;SDS011;11810;51.178;3.878;2023-01-09T09:23:17;15.73;;;5.15;;
23282;SDS011;11810;51.178;3.878;2023-01-09T09:26:00;15.70;;;4.80;;
23282;SDS011;11810;51.178;3.878;2023-01-09T09:28:26;19.33;;;5.15;;
23282;SDS011;11810;51.178;3.878;2023-01-09T09:30:52;14.23;;;3.83;;
23282;SDS011;11810;51.178;3.878;2023-01-09T09:33:18;17.20;;;5.15;;
23282;SDS011;11810;51.178;3.878;2023-01-09T09:35:43;13.18;;;4.38;;
23282;SDS011;11810;51.178;3.878;2023-01-09T09:38:09;15.02;;;3.60;;
23282;SDS011;11810;51.178;3.878;2023-01-09T09:49:20;19.70;;;4.53;;
23282;SDS011;11810;51.178;3.878;2023-01-09T09:52:13;17.08;;;4.32;;
23282;SDS011;11810;51.178;3.878;2023-01-09T09:54:55;12.38;;;3.92;;
23282;SDS011;11810;51.178;3.878;2023-01-09T09:57:28;10.25;;;3.95;;
23282;SDS011;11810;51.178;3.878;2023-01-09T10:00:01;14.02;;;4.88;;
23282;SDS011;11810;51.178;3.878;2023-01-09T10:02:38;10.82;;;4.40;;
23282;SDS011;11810;51.178;3.878;2023-01-09T10:06:06;15.18;;;4.35;;
23282;SDS011;11810;51.178;3.878;2023-01-09T10:08:56;24.95;;;6.13;;
23282;SDS011;11810;51.178;3.878;2023-01-09T10:13:58;18.60;;;4.65;;
23282;SDS011;11810;51.178;3.878;2023-01-09T10:19:22;21.60;;;4.78;;
23282;SDS011;11810;51.178;3.878;2023-01-09T10:27:52;13.48;;;4.82;;
23282;SDS011;11810;51.178;3.878;2023-01-09T10:38:49;12.95;;;4.25;;
23282;SDS011;11810;51.178;3.878;2023-01-09T10:41:23;18.73;;;4.55;;
23282;SDS011;11810;51.178;3.878;2023-01-09T10:44:00;9.50;;;4.22;;
23282;SDS011;11810;51.178;3.878;2023-01-09T10:46:39;13.18;;;3.60;;
23282;SDS011;11810;51.178;3.878;2023-01-09T10:49:10;13.75;;;4.07;;
23282;SDS011;11810;51.178;3.878;2023-01-09T10:51:43;15.18;;;4.10;;
23282;SDS011;11810;51.178;3.878;2023-01-09T10:54:21;17.70;;;4.50;;
23282;SDS011;11810;51.178;3.878;2023-01-09T10:56:55;16.13;;;4.13;;
23282;SDS011;11810;51.178;3.878;2023-01-09T11:01:09;15.18;;;3.63;;
23282;SDS011;11810;51.178;3.878;2023-01-09T11:03:35;15.25;;;3.63;;
23282;SDS011;11810;51.178;3.878;2023-01-09T11:06:03;14.90;;;4.55;;
23282;SDS011;11810;51.178;3.878;2023-01-09T11:08:44;14.05;;;3.38;;
23282;SDS011;11810;51.178;3.878;2023-01-09T11:11:12;14.82;;;4.18;;
23282;SDS011;11810;51.178;3.878;2023-01-09T11:14:04;8.45;;;3.60;;
23282;SDS011;11810;51.178;3.878;2023-01-09T11:16:52;21.50;;;4.80;;
23282;SDS011;11810;51.178;3.878;2023-01-09T11:19:20;18.35;;;4.50;;
23282;SDS011;11810;51.178;3.878;2023-01-09T11:21:47;16.23;;;3.65;;
23282;SDS011;11810;51.178;3.878;2023-01-09T11:26:49;15.68;;;4.45;;
23282;SDS011;11810;51.178;3.878;2023-01-09T11:29:17;13.57;;;3.20;;
23282;SDS011;11810;51.178;3.878;2023-01-09T11:31:52;15.52;;;4.07;;
23282;SDS011;11810;51.178;3.878;2023-01-09T11:34:32;12.80;;;3.13;;
23282;SDS011;11810;51.178;3.878;2023-01-09T11:37:01;17.15;;;4.80;;
23282;SDS011;11810;51.178;3.878;2023-01-09T11:39:32;16.48;;;5.45;;
23282;SDS011;11810;51.178;3.878;2023-01-09T11:42:03;19.27;;;5.03;;
23282;SDS011;11810;51.178;3.878;2023-01-09T11:44:30;16.15;;;4.82;;
23282;SDS011;11810;51.178;3.878;2023-01-09T11:46:57;16.55;;;5.13;;
23282;SDS011;11810;51.178;3.878;2023-01-09T11:49:24;17.90;;;5.03;;
23282;SDS011;11810;51.178;3.878;2023-01-09T11:54:54;16.65;;;5.10;;
23282;SDS011;11810;51.178;3.878;2023-01-09T11:57:28;18.77;;;4.43;;
23282;SDS011;11810;51.178;3.878;2023-01-09T11:59:56;22.58;;;6.32;;
